createdAt,value
2019-03-24T00:02:11.612Z,52.23
2019-03-24T00:04:38.914Z,53.90
2019-03-24T00:07:06.233Z,53.63
2019-03-24T00:09:33.526Z,49.63
2019-03-24T00:12:00.826Z,51.13
2019-03-24T00:14:28.152Z,54.30
2019-03-24T00:16:55.443Z,51.30
2019-03-24T00:19:22.773Z,34.95
2019-03-24T00:21:50.083Z,48.48
2019-03-24T00:24:17.357Z,50.80
2019-03-24T00:26:44.682Z,47.93
2019-03-24T00:29:11.987Z,48.55
2019-03-24T00:31:39.274Z,50.90
2019-03-24T00:34:06.602Z,47.50
2019-03-24T00:36:33.889Z,49.13
2019-03-24T00:39:01.200Z,48.48
2019-03-24T00:41:28.498Z,47.38
2019-03-24T00:43:55.824Z,48.65
2019-03-24T00:46:23.146Z,51.15
2019-03-24T00:48:50.451Z,48.00
2019-03-24T00:51:17.773Z,49.80
2019-03-24T00:53:45.061Z,51.53
2019-03-24T00:56:12.373Z,49.65
2019-03-24T00:58:39.683Z,49.00
2019-03-24T01:01:06.987Z,50.80
2019-03-24T01:03:34.301Z,49.63
2019-03-24T01:06:01.950Z,49.83
2019-03-24T01:08:29.290Z,47.10
2019-03-24T01:10:56.597Z,45.90
2019-03-24T01:13:23.889Z,48.48
2019-03-24T01:15:51.208Z,48.20
2019-03-24T01:18:18.510Z,48.23
2019-03-24T01:20:45.792Z,50.30
2019-03-24T01:23:13.116Z,49.35
2019-03-24T01:25:40.402Z,46.50
2019-03-24T01:28:07.697Z,49.05
2019-03-24T01:30:35.017Z,51.35
2019-03-24T01:33:02.386Z,48.70
2019-03-24T01:35:29.678Z,48.13
2019-03-24T01:37:56.997Z,49.03
2019-03-24T01:40:24.295Z,39.78
2019-03-24T01:42:51.582Z,51.30
2019-03-24T01:45:18.902Z,49.15
2019-03-24T01:47:46.198Z,49.85
2019-03-24T01:50:13.486Z,49.27
2019-03-24T01:52:40.815Z,54.00
2019-03-24T01:55:08.110Z,51.73
2019-03-24T01:57:35.401Z,49.35
2019-03-24T02:00:02.886Z,52.33
2019-03-24T02:02:30.215Z,50.25
2019-03-24T02:04:57.508Z,49.30
2019-03-24T02:07:24.817Z,52.53
2019-03-24T02:09:52.122Z,51.80
2019-03-24T02:12:19.451Z,53.23
2019-03-24T02:14:46.767Z,51.33
2019-03-24T02:17:14.087Z,50.92
2019-03-24T02:19:41.373Z,51.68
2019-03-24T02:22:08.675Z,50.40
2019-03-24T02:24:35.992Z,54.73
2019-03-24T02:27:03.286Z,52.67
2019-03-24T02:29:30.614Z,52.70
2019-03-24T02:31:57.908Z,50.33
2019-03-24T02:34:25.215Z,53.80
2019-03-24T02:36:52.524Z,47.45
2019-03-24T02:39:19.815Z,52.85
2019-03-24T02:41:47.130Z,53.85
2019-03-24T02:44:14.436Z,53.78
2019-03-24T02:46:41.735Z,51.92
2019-03-24T02:49:09.047Z,42.73
2019-03-24T02:51:36.333Z,52.20
2019-03-24T02:54:04.023Z,51.02
2019-03-24T02:56:31.316Z,52.48
2019-03-24T02:58:58.605Z,54.63
2019-03-24T03:01:25.925Z,50.12
2019-03-24T03:03:53.233Z,50.78
2019-03-24T03:06:20.540Z,52.08
2019-03-24T03:08:47.838Z,50.28
2019-03-24T03:11:15.134Z,54.35
2019-03-24T03:13:42.445Z,53.68
2019-03-24T03:16:09.755Z,50.15
2019-03-24T03:18:37.069Z,53.90
2019-03-24T03:21:04.368Z,52.13
2019-03-24T03:23:31.666Z,52.35
2019-03-24T03:25:59.002Z,51.00
2019-03-24T03:28:26.285Z,52.50
2019-03-24T03:30:53.593Z,53.40
2019-03-24T03:33:20.908Z,51.40
2019-03-24T03:35:48.215Z,48.48
2019-03-24T03:38:15.524Z,51.13
2019-03-24T03:40:42.840Z,50.85
2019-03-24T03:43:29.578Z,49.63
2019-03-24T03:45:56.902Z,50.52
2019-03-24T03:48:24.216Z,47.95
2019-03-24T03:50:51.508Z,47.00
2019-03-24T03:53:18.839Z,41.30
2019-03-24T03:55:46.141Z,49.08
2019-03-24T03:58:13.479Z,45.95
2019-03-24T04:00:40.767Z,48.92
2019-03-24T04:03:08.093Z,48.68
2019-03-24T04:05:35.387Z,47.93
2019-03-24T04:08:02.692Z,48.50
2019-03-24T04:10:30.015Z,49.35
2019-03-24T04:12:57.327Z,49.95
2019-03-24T04:15:24.629Z,46.70
2019-03-24T04:17:51.946Z,47.95
2019-03-24T04:20:19.253Z,46.77
2019-03-24T04:22:46.571Z,49.83
2019-03-24T04:25:13.898Z,50.05
2019-03-24T04:27:41.210Z,46.98
2019-03-24T04:30:08.530Z,47.13
2019-03-24T04:32:35.818Z,51.75
2019-03-24T04:35:03.995Z,48.80
2019-03-24T04:37:33.083Z,49.53
2019-03-24T04:40:00.381Z,51.13
2019-03-24T04:42:27.687Z,48.05
2019-03-24T04:44:55.001Z,48.13
2019-03-24T04:47:22.324Z,48.20
2019-03-24T04:49:49.613Z,47.03
2019-03-24T04:52:16.919Z,47.05
2019-03-24T04:54:44.218Z,50.75
2019-03-24T04:57:11.508Z,45.20
2019-03-24T04:59:38.823Z,44.63
2019-03-24T05:02:06.141Z,49.00
2019-03-24T05:04:33.467Z,46.53
2019-03-24T05:07:00.778Z,47.80
2019-03-24T05:09:28.071Z,48.52
2019-03-24T05:11:55.383Z,50.25
2019-03-24T05:14:22.679Z,48.08
2019-03-24T05:16:49.990Z,49.60
2019-03-24T05:19:17.286Z,38.50
2019-03-24T05:21:44.619Z,46.77
2019-03-24T05:24:11.910Z,45.65
2019-03-24T05:26:39.205Z,47.35
2019-03-24T05:29:06.534Z,46.85
2019-03-24T05:31:33.854Z,46.90
2019-03-24T05:34:01.159Z,49.48
2019-03-24T05:36:28.485Z,46.42
2019-03-24T05:38:55.809Z,47.58
2019-03-24T05:41:23.115Z,47.25
2019-03-24T05:43:50.433Z,44.10
2019-03-24T05:46:17.739Z,46.00
2019-03-24T05:48:45.034Z,41.42
2019-03-24T05:51:12.358Z,43.00
2019-03-24T05:53:39.651Z,45.83
2019-03-24T05:56:06.983Z,40.52
2019-03-24T05:58:34.265Z,40.63
2019-03-24T06:01:01.586Z,41.13
2019-03-24T06:03:28.886Z,27.80
2019-03-24T06:05:56.191Z,28.67
2019-03-24T06:08:23.500Z,32.45
2019-03-24T06:10:50.790Z,32.13
2019-03-24T06:13:18.097Z,28.90
2019-03-24T06:15:45.388Z,35.68
2019-03-24T06:18:12.774Z,36.15
2019-03-24T06:20:40.065Z,38.48
2019-03-24T06:23:07.362Z,36.60
2019-03-24T06:25:35.032Z,31.02
2019-03-24T06:28:02.375Z,31.20
2019-03-24T06:30:29.683Z,27.70
2019-03-24T06:32:56.987Z,28.45
2019-03-24T06:35:24.304Z,32.05
2019-03-24T06:37:51.622Z,27.48
2019-03-24T06:40:19.876Z,28.45
2019-03-24T06:42:47.225Z,26.87
2019-03-24T06:45:14.549Z,28.12
2019-03-24T06:47:41.850Z,32.10
2019-03-24T06:50:09.173Z,29.00
2019-03-24T06:52:36.483Z,32.85
2019-03-24T06:55:04.190Z,28.07
2019-03-24T06:57:31.504Z,27.52
2019-03-24T06:59:58.793Z,30.75
2019-03-24T07:02:26.120Z,25.57
2019-03-24T07:04:53.422Z,25.82
2019-03-24T07:07:20.729Z,26.40
2019-03-24T07:09:48.021Z,28.12
2019-03-24T07:12:15.353Z,27.93
2019-03-24T07:14:42.663Z,27.90
2019-03-24T07:17:09.957Z,26.62
2019-03-24T07:19:37.282Z,26.35
2019-03-24T07:22:04.589Z,27.65
2019-03-24T07:24:32.011Z,27.75
2019-03-24T07:26:59.312Z,27.82
2019-03-24T07:29:26.613Z,25.90
2019-03-24T07:31:53.935Z,25.32
2019-03-24T07:34:21.233Z,24.32
2019-03-24T07:36:48.558Z,26.57
2019-03-24T07:39:15.883Z,27.95
2019-03-24T07:41:43.202Z,26.65
2019-03-24T07:44:10.514Z,28.40
2019-03-24T07:46:37.809Z,27.80
2019-03-24T07:49:05.142Z,30.23
2019-03-24T07:51:32.447Z,27.07
2019-03-24T07:53:59.734Z,28.32
2019-03-24T07:56:27.054Z,28.75
2019-03-24T07:58:54.369Z,29.05
2019-03-24T08:01:21.664Z,28.17
2019-03-24T08:03:48.974Z,28.10
2019-03-24T08:06:16.302Z,31.55
2019-03-24T08:08:44.449Z,29.95
2019-03-24T08:11:11.904Z,26.68
2019-03-24T08:13:39.199Z,28.38
2019-03-24T08:16:06.513Z,30.35
2019-03-24T08:18:33.811Z,29.42
2019-03-24T08:21:01.132Z,31.75
2019-03-24T08:23:28.428Z,29.15
2019-03-24T08:25:55.762Z,31.62
2019-03-24T08:28:23.247Z,29.92
2019-03-24T08:30:50.551Z,30.77
2019-03-24T08:33:17.871Z,31.87
2019-03-24T08:35:45.170Z,33.38
2019-03-24T08:38:12.495Z,32.58
2019-03-24T08:40:39.789Z,32.85
2019-03-24T08:43:07.081Z,33.35
2019-03-24T08:45:34.418Z,32.90
2019-03-24T08:48:01.731Z,35.17
2019-03-24T08:50:29.025Z,33.23
2019-03-24T08:52:56.352Z,31.77
2019-03-24T08:55:23.943Z,32.73
2019-03-24T08:57:51.246Z,32.80
2019-03-24T09:00:18.579Z,31.75
2019-03-24T09:02:45.879Z,34.60
2019-03-24T09:05:13.164Z,33.48
2019-03-24T09:07:40.754Z,33.30
2019-03-24T09:10:08.061Z,31.23
2019-03-24T09:12:35.399Z,33.30
2019-03-24T09:15:02.690Z,34.48
2019-03-24T09:17:30.104Z,33.75
2019-03-24T09:19:57.402Z,32.05
2019-03-24T09:22:24.737Z,31.70
2019-03-24T09:24:52.037Z,32.63
2019-03-24T09:27:19.358Z,36.38
2019-03-24T09:29:46.650Z,32.73
2019-03-24T09:32:13.965Z,34.20
2019-03-24T09:34:41.253Z,35.85
2019-03-24T09:37:08.571Z,34.58
2019-03-24T09:39:35.880Z,36.85
2019-03-24T09:42:03.201Z,37.98
2019-03-24T09:44:30.510Z,38.15
2019-03-24T09:46:57.802Z,37.35
2019-03-24T09:49:25.122Z,36.25
2019-03-24T09:51:52.409Z,35.60
2019-03-24T09:54:19.750Z,36.55
2019-03-24T09:56:47.034Z,35.50
2019-03-24T09:59:14.370Z,37.70
2019-03-24T10:01:41.656Z,38.58
2019-03-24T10:04:08.957Z,39.05
2019-03-24T10:06:36.274Z,37.50
2019-03-24T10:09:04.670Z,38.00
2019-03-24T10:11:31.964Z,34.10
2019-03-24T10:13:59.266Z,35.60
2019-03-24T10:16:26.588Z,37.95
2019-03-24T10:18:53.898Z,36.55
2019-03-24T10:21:21.201Z,36.53
2019-03-24T10:23:48.518Z,37.53
2019-03-24T10:26:15.801Z,37.50
2019-03-24T10:28:43.108Z,37.55
2019-03-24T10:31:10.421Z,36.25
2019-03-24T10:33:37.722Z,38.53
2019-03-24T10:36:05.040Z,38.92
2019-03-24T10:38:32.332Z,40.10
2019-03-24T10:40:59.659Z,38.70
2019-03-24T10:43:27.025Z,37.42
2019-03-24T10:45:54.368Z,39.30
2019-03-24T10:48:21.657Z,38.05
2019-03-24T10:50:48.955Z,39.83
2019-03-24T10:53:16.270Z,38.28
2019-03-24T10:55:43.571Z,39.10
2019-03-24T10:58:10.885Z,38.45
2019-03-24T11:00:39.818Z,40.03
2019-03-24T11:03:07.137Z,40.45
2019-03-24T11:05:34.513Z,37.13
2019-03-24T11:08:01.811Z,41.00
2019-03-24T11:10:29.140Z,40.83
2019-03-24T11:12:56.442Z,38.55
2019-03-24T11:15:23.758Z,38.55
2019-03-24T11:17:51.048Z,38.08
2019-03-24T11:20:18.374Z,36.33
2019-03-24T11:22:45.667Z,38.55
2019-03-24T11:25:12.962Z,36.20
2019-03-24T11:27:40.277Z,40.65
2019-03-24T11:30:13.505Z,39.90
2019-03-24T11:32:40.893Z,38.78
2019-03-24T11:35:08.457Z,39.25
2019-03-24T11:37:35.786Z,41.37
2019-03-24T11:40:04.053Z,39.78
2019-03-24T11:42:31.392Z,37.33
2019-03-24T11:44:58.681Z,40.65
2019-03-24T11:47:26.810Z,39.50
2019-03-24T11:49:54.294Z,37.95
2019-03-24T11:52:21.605Z,38.48
2019-03-24T11:54:48.921Z,37.73
2019-03-24T11:57:16.214Z,37.60
2019-03-24T11:59:43.532Z,39.92
2019-03-24T12:02:10.839Z,36.63
2019-03-24T12:04:38.133Z,36.90
2019-03-24T12:07:05.457Z,42.15
2019-03-24T12:09:32.750Z,39.78
2019-03-24T12:12:00.079Z,36.65
2019-03-24T12:14:27.395Z,35.70
2019-03-24T12:16:54.700Z,35.55
2019-03-24T12:19:21.997Z,37.23
2019-03-24T12:21:49.322Z,37.33
2019-03-24T12:24:16.663Z,36.50
2019-03-24T12:26:44.267Z,35.88
2019-03-24T12:29:12.546Z,38.15
2019-03-24T12:31:39.891Z,36.60
2019-03-24T12:34:09.451Z,37.25
2019-03-24T12:36:38.155Z,37.10
2019-03-24T12:39:06.434Z,34.00
2019-03-24T12:41:33.864Z,38.20
2019-03-24T12:44:01.176Z,36.08
2019-03-24T12:46:28.477Z,37.42
2019-03-24T12:48:55.774Z,35.43
2019-03-24T12:51:23.084Z,36.80
2019-03-24T12:53:50.413Z,36.28
2019-03-24T12:56:17.703Z,37.28
2019-03-24T12:58:45.005Z,37.70
2019-03-24T13:01:12.349Z,38.73
2019-03-24T13:03:39.639Z,40.43
2019-03-24T13:06:06.963Z,36.65
2019-03-24T13:08:34.270Z,37.35
2019-03-24T13:11:01.569Z,36.53
2019-03-24T13:13:28.887Z,36.58
2019-03-24T13:15:56.238Z,39.03
2019-03-24T13:18:23.489Z,36.83
2019-03-24T13:20:50.832Z,41.42
2019-03-24T13:23:18.142Z,38.13
2019-03-24T13:25:45.466Z,34.70
2019-03-24T13:28:12.793Z,33.50
2019-03-24T13:30:40.057Z,32.90
2019-03-24T13:33:07.387Z,34.13
2019-03-24T13:35:34.707Z,33.40
2019-03-24T13:38:02.025Z,34.27
2019-03-24T13:40:29.314Z,34.10
2019-03-24T13:42:56.608Z,32.78
2019-03-24T13:45:23.942Z,34.95
2019-03-24T13:47:51.245Z,34.15
2019-03-24T13:50:18.558Z,32.70
2019-03-24T13:52:45.868Z,35.83
2019-03-24T13:55:13.154Z,34.98
2019-03-24T13:57:40.495Z,35.83
2019-03-24T14:00:09.623Z,35.08
2019-03-24T14:02:36.918Z,34.08
2019-03-24T14:05:04.240Z,34.75
2019-03-24T14:07:31.521Z,37.33
2019-03-24T14:09:58.837Z,38.60
2019-03-24T14:12:26.140Z,37.80
2019-03-24T14:14:53.454Z,36.38
2019-03-24T14:17:20.744Z,35.70
2019-03-24T14:19:48.068Z,36.75
2019-03-24T14:22:15.381Z,35.75
2019-03-24T14:24:42.691Z,35.65
2019-03-24T14:27:10.005Z,34.00
2019-03-24T14:29:37.307Z,33.15
2019-03-24T14:32:04.588Z,35.08
2019-03-24T14:34:31.904Z,30.32
2019-03-24T14:36:59.226Z,33.55
2019-03-24T14:39:26.526Z,35.60
2019-03-24T14:41:53.831Z,32.10
2019-03-24T14:44:21.120Z,30.80
2019-03-24T14:46:48.429Z,31.52
2019-03-24T14:49:15.729Z,32.40
2019-03-24T14:51:43.055Z,31.55
2019-03-24T14:54:10.350Z,29.85
2019-03-24T14:56:37.637Z,30.88
2019-03-24T14:59:04.954Z,33.15
2019-03-24T15:01:32.272Z,32.25
2019-03-24T15:03:59.574Z,33.48
2019-03-24T15:06:26.865Z,30.37
2019-03-24T15:08:54.196Z,31.27
2019-03-24T15:11:21.486Z,30.68
2019-03-24T15:13:48.777Z,33.80
2019-03-24T15:16:16.126Z,36.53
2019-03-24T15:18:43.430Z,31.17
2019-03-24T15:21:11.586Z,32.67
2019-03-24T15:23:38.961Z,31.55
2019-03-24T15:26:06.283Z,31.77
2019-03-24T15:28:33.578Z,34.00
2019-03-24T15:31:00.901Z,32.08
2019-03-24T15:33:28.209Z,34.43
2019-03-24T15:35:55.524Z,32.93
2019-03-24T15:38:22.816Z,36.08
2019-03-24T15:40:50.218Z,32.83
2019-03-24T15:43:17.558Z,33.88
2019-03-24T15:45:44.892Z,32.75
2019-03-24T15:48:12.201Z,36.33
2019-03-24T15:50:39.492Z,34.80
2019-03-24T15:53:06.817Z,35.90
2019-03-24T15:55:34.112Z,34.27
2019-03-24T15:58:01.397Z,34.10
2019-03-24T16:00:36.281Z,34.48
2019-03-24T16:03:03.587Z,34.80
2019-03-24T16:05:30.870Z,31.45
2019-03-24T16:07:58.196Z,31.35
2019-03-24T16:10:34.914Z,31.82
2019-03-24T16:12:54.453Z,29.92
2019-03-24T16:15:21.758Z,30.45
2019-03-24T16:17:49.079Z,30.95
2019-03-24T16:20:16.407Z,29.30
2019-03-24T16:22:43.701Z,31.17
2019-03-24T16:25:10.989Z,30.92
2019-03-24T16:27:38.322Z,30.62
2019-03-24T16:30:08.566Z,30.88
2019-03-24T16:32:35.878Z,30.97
2019-03-24T16:35:03.746Z,33.50
2019-03-24T16:37:31.047Z,28.17
2019-03-24T16:39:58.363Z,29.40
2019-03-24T16:42:25.658Z,30.92
2019-03-24T16:44:52.954Z,28.65
2019-03-24T16:47:20.278Z,29.77
2019-03-24T16:49:47.574Z,27.85
2019-03-24T16:52:14.898Z,28.12
2019-03-24T16:54:42.195Z,25.77
2019-03-24T16:57:09.485Z,27.80
2019-03-24T16:59:36.856Z,25.77
2019-03-24T17:02:04.117Z,25.48
2019-03-24T17:04:31.442Z,25.23
2019-03-24T17:06:58.753Z,26.48
2019-03-24T17:09:26.053Z,26.57
2019-03-24T17:11:53.337Z,25.37
2019-03-24T17:14:20.668Z,26.30
2019-03-24T17:16:47.953Z,23.98
2019-03-24T17:19:15.275Z,25.55
2019-03-24T17:21:49.980Z,25.60
2019-03-24T17:24:11.496Z,23.05
2019-03-24T17:26:38.819Z,24.45
2019-03-24T17:29:06.138Z,24.43
2019-03-24T17:31:33.435Z,22.70
2019-03-24T17:34:00.727Z,25.32
2019-03-24T17:36:28.059Z,23.40
2019-03-24T17:38:55.354Z,23.98
2019-03-24T17:41:22.717Z,24.75
2019-03-24T17:43:50.034Z,26.20
2019-03-24T17:46:19.450Z,24.12
2019-03-24T17:48:46.311Z,25.30
2019-03-24T17:51:13.628Z,25.02
2019-03-24T17:53:40.937Z,25.75
2019-03-24T17:56:08.234Z,25.65
2019-03-24T17:58:35.528Z,20.90
2019-03-24T18:01:02.886Z,22.77
2019-03-24T18:03:30.181Z,24.95
2019-03-24T18:05:59.534Z,25.27
2019-03-24T18:08:26.439Z,26.50
2019-03-24T18:10:53.745Z,24.35
2019-03-24T18:13:21.091Z,24.35
2019-03-24T18:15:48.399Z,25.30
2019-03-24T18:18:15.688Z,25.32
2019-03-24T18:20:43.010Z,35.20
2019-03-24T18:23:10.296Z,28.98
2019-03-24T18:25:37.592Z,30.52
2019-03-24T18:28:04.905Z,22.15
2019-03-24T18:30:32.199Z,25.05
2019-03-24T18:32:59.495Z,25.48
2019-03-24T18:35:26.830Z,24.45
2019-03-24T18:37:54.117Z,24.25
2019-03-24T18:40:21.420Z,24.92
2019-03-24T18:42:48.820Z,25.55
2019-03-24T18:45:16.086Z,25.80
2019-03-24T18:47:44.278Z,23.45
2019-03-24T18:50:11.574Z,25.70
2019-03-24T18:52:38.881Z,25.25
2019-03-24T18:55:06.272Z,25.17
2019-03-24T18:57:33.566Z,26.25
2019-03-24T19:00:00.882Z,25.50
2019-03-24T19:02:28.179Z,24.75
2019-03-24T19:04:55.490Z,24.12
2019-03-24T19:07:22.794Z,23.75
2019-03-24T19:09:50.108Z,25.10
2019-03-24T19:12:17.403Z,24.87
2019-03-24T19:14:44.701Z,25.50
2019-03-24T19:17:12.016Z,22.90
2019-03-24T19:19:39.339Z,24.12
2019-03-24T19:22:06.642Z,22.93
2019-03-24T19:24:33.924Z,26.75
2019-03-24T19:27:01.241Z,23.73
2019-03-24T19:29:28.547Z,23.42
2019-03-24T19:31:55.843Z,25.48
2019-03-24T19:34:23.164Z,25.70
2019-03-24T19:36:50.468Z,26.17
2019-03-24T19:39:17.818Z,26.30
2019-03-24T19:41:45.114Z,25.95
2019-03-24T19:44:12.414Z,25.97
2019-03-24T19:46:39.746Z,27.35
2019-03-24T19:49:08.511Z,25.43
2019-03-24T19:51:35.863Z,24.92
2019-03-24T19:54:03.192Z,28.30
2019-03-24T19:56:30.481Z,26.93
2019-03-24T19:58:57.794Z,26.62
2019-03-24T20:01:25.085Z,26.70
2019-03-24T20:03:52.400Z,25.90
2019-03-24T20:06:19.767Z,28.95
2019-03-24T20:08:47.331Z,27.10
2019-03-24T20:11:14.643Z,28.80
2019-03-24T20:13:41.938Z,29.18
2019-03-24T20:16:09.246Z,28.32
2019-03-24T20:18:36.553Z,30.00
2019-03-24T20:21:03.870Z,29.72
2019-03-24T20:23:31.168Z,30.60
2019-03-24T20:25:58.497Z,29.20
2019-03-24T20:28:25.921Z,29.87
2019-03-24T20:30:53.189Z,30.50
2019-03-24T20:33:20.513Z,30.77
2019-03-24T20:35:47.798Z,28.95
2019-03-24T20:38:15.127Z,38.50
2019-03-24T20:40:42.451Z,38.70
2019-03-24T20:43:09.779Z,40.03
2019-03-24T20:45:37.066Z,39.85
2019-03-24T20:48:04.391Z,39.25
2019-03-24T20:50:31.687Z,42.38
2019-03-24T20:53:04.106Z,39.98
2019-03-24T20:55:27.953Z,38.15
2019-03-24T20:57:55.255Z,34.58
2019-03-24T21:00:30.274Z,36.35
2019-03-24T21:02:57.581Z,38.17
2019-03-24T21:05:24.883Z,36.05
2019-03-24T21:07:52.187Z,41.70
2019-03-24T21:10:19.477Z,41.50
2019-03-24T21:12:46.805Z,39.58
2019-03-24T21:15:14.097Z,41.95
2019-03-24T21:17:41.396Z,39.10
2019-03-24T21:20:08.707Z,42.88
2019-03-24T21:22:36.007Z,41.58
2019-03-24T21:25:03.793Z,40.83
2019-03-24T21:27:31.161Z,44.88
2019-03-24T21:29:58.431Z,41.13
2019-03-24T21:32:25.747Z,32.15
2019-03-24T21:34:53.043Z,41.73
2019-03-24T21:37:20.344Z,43.35
2019-03-24T21:39:47.667Z,42.23
2019-03-24T21:42:15.094Z,40.95
2019-03-24T21:44:42.566Z,43.35
2019-03-24T21:47:09.882Z,44.98
2019-03-24T21:49:37.180Z,40.65
2019-03-24T21:52:04.488Z,40.10
2019-03-24T21:54:31.808Z,40.12
2019-03-24T21:56:59.106Z,51.77
2019-03-24T21:59:26.404Z,51.08
2019-03-24T22:01:58.136Z,45.55
2019-03-24T22:04:28.003Z,44.18
2019-03-24T22:06:55.486Z,39.35
2019-03-24T22:09:22.810Z,39.80
2019-03-24T22:11:50.104Z,41.25
2019-03-24T22:14:17.424Z,39.05
2019-03-24T22:16:44.725Z,37.40
2019-03-24T22:19:12.002Z,32.53
2019-03-24T22:21:39.327Z,35.58
2019-03-24T22:24:06.618Z,33.70
2019-03-24T22:26:33.932Z,33.85
2019-03-24T22:29:01.230Z,27.87
2019-03-24T22:31:28.562Z,34.33
2019-03-24T22:33:55.850Z,31.85
2019-03-24T22:36:23.151Z,42.80
2019-03-24T22:38:50.471Z,37.03
2019-03-24T22:41:17.780Z,32.15
2019-03-24T22:43:45.068Z,33.13
2019-03-24T22:46:12.393Z,27.13
2019-03-24T22:48:39.692Z,25.50
2019-03-24T22:51:06.995Z,26.62
2019-03-24T22:53:34.310Z,26.12
2019-03-24T22:56:01.601Z,25.45
2019-03-24T22:58:28.924Z,33.20
2019-03-24T23:00:56.808Z,30.25
2019-03-24T23:03:25.330Z,28.38
2019-03-24T23:05:52.766Z,30.68
2019-03-24T23:08:20.080Z,27.52
2019-03-24T23:10:47.373Z,27.15
2019-03-24T23:13:14.694Z,25.45
2019-03-24T23:15:41.990Z,27.32
2019-03-24T23:18:09.302Z,24.10
2019-03-24T23:20:36.598Z,27.45
2019-03-24T23:23:03.894Z,25.92
2019-03-24T23:25:31.197Z,25.92
2019-03-24T23:27:58.489Z,26.05
2019-03-24T23:30:25.787Z,25.97
2019-03-24T23:32:53.118Z,25.72
2019-03-24T23:35:20.406Z,26.07
2019-03-24T23:37:47.700Z,25.95
2019-03-24T23:40:15.010Z,24.95
2019-03-24T23:42:42.312Z,27.52
2019-03-24T23:45:09.621Z,25.32
2019-03-24T23:47:36.914Z,23.80
2019-03-24T23:50:05.209Z,26.07
2019-03-24T23:52:32.503Z,27.82
2019-03-24T23:54:59.798Z,25.52
2019-03-24T23:57:27.122Z,24.87
2019-03-24T23:59:54.405Z,25.23
